Aviation Digital Data Service (ADDS)

Output produced by METARs form (0734 UTC 09 February 2016)
found at http://aviationweather.gov/adds/metars/
 
KJST 090527Z 0906/1006 17007KT P6SM VCSH BKN018 OVC025 
     FM090900 20003KT 1 1/2SM -SN OVC008 
     FM091200 16005KT 1SM -SN BR OVC005 
     FM091500 25007KT 3/4SM -SN BR OVC004 
     FM100200 28010KT 2SM -SHSN BR OVC007